Detalii statie VESTAGRAR MARGHITA [00001D0E]

Toti senzorii

Date Temperatura solului [C]Precipitatii [mm]Voltaj baterie [mV]Leaf Wetness [Min]HC Air temperature [C]HC Relative humidity [%]Punctul de roua [C]
medieminmaxsumaultimatimpmedieminmaxmediemediemin
2019-08-15 19:00:00 0 7010 19.02 18.41 19.59 0 0 0
2019-08-15 20:00:00 0 6972 17.74 16.86 18.35 0 0 0
2019-08-15 21:00:00 0 6962 16.06 15.38 16.81 0 0 0
2019-08-15 22:00:00 0 6962 15.11 14.9 15.41 0 0 0
2019-08-15 23:00:00 0 6952 14.4 13.56 15.01 0 0 0
2019-08-16 00:00:00 0 6942 12.74 12.3 13.42 0 0 0
2019-08-16 01:00:00 0 6914 11.98 11.46 12.51 0 0 0
2019-08-16 02:00:00 0 6914 11.12 10.6 11.82 0 0 0
2019-08-16 03:00:00 0 6884 10.37 9.77 10.78 0 0 0
2019-08-16 04:00:00 0 6874 10.26 9.88 10.57 0 0 0
2019-08-16 05:00:00 0 6864 10.53 10.1 10.83 0 0 0
2019-08-16 06:00:00 0 6854 10.47 10.04 11.07 0 0 0
2019-08-16 07:00:00 0 6922 11.66 11.25 11.96 0 0 0
2019-08-16 08:00:00 0 7128 12.83 12.01 13.94 0 0 0
2019-08-16 09:00:00 0 7304 15.98 14.2 17.51 0 0 0
2019-08-16 10:00:00 0 7314 20.11 18.24 21.87 0 0 0
2019-08-16 11:00:00 0 7294 24.53 21.99 25.95 0 0 0
2019-08-16 12:00:00 0 7304 25.9 24.77 26.49 0 0 0
2019-08-16 13:00:00 0 7294 26.66 25.93 27.35 5.86 -0.7 0
2019-08-16 14:00:00 0 7284 25.94 24.22 27.04 21.96 5.2 0
2019-08-16 15:00:00 0 7294 25.38 24 27.55 18.97 0
2019-08-16 16:00:00 0 7294 26.29 24.64 27.61 3.71 0
2019-08-16 17:00:00 0 7128 25.35 24.8 26.34 18.48 -0.6 -1.5
2019-08-16 18:00:00 0 7108 24.3 23.97 24.77 21.81 0.5 -2.8
2019-08-16 19:00:00 0 7020 23.22 21.94 24.01 27.51 3.1 1.6
2019-08-16 20:00:00 0 6952 19.88 18.3 21.68 38.18 4.8 -0.9
2019-08-16 21:00:00 0 6952 16.05 15.41 17.56 9.95 0
2019-08-16 22:00:00 0 6942 14.21 13.09 15.17 0 0 0
2019-08-16 23:00:00 0 6942 12.55 12.18 12.85 0 0 0
2019-08-17 00:00:00 0 6932 11.78 11.29 12.33 0 0 0
2019-08-17 01:00:00 0 6904 11.28 11.1 11.63 0 0 0
2019-08-17 02:00:00 0 6904 11.47 10.93 11.93 0 0 0
2019-08-17 03:00:00 0 6894 11.52 11.02 11.82 0 0 0
2019-08-17 04:00:00 0 6874 10.52 10.19 11.01 0 0 0
2019-08-17 05:00:00 0 6864 10.13 9.57 10.56 0 0 0
2019-08-17 06:00:00 0 6864 10.31 10.01 10.77 0 0 0
2019-08-17 07:00:00 0 6904 11.42 11.07 12 0 0 0
2019-08-17 08:00:00 0 7108 13.96 12.06 16.28 0 0 0
2019-08-17 09:00:00 0 7304 19.92 16.77 22.53 0 0 0
2019-08-17 10:00:00 0 7304 23.27 22.2 25.18 0 0 0
2019-08-17 11:00:00 0 7294 24.83 23.86 25.82 0 0 0
2019-08-17 12:00:00 0 7294 27.04 25.38 28.87 0 0 0
2019-08-17 13:00:00 0 7294 28.32 27.52 29.23 0 0 0
2019-08-17 14:00:00 0 7294 28.82 26.5 30.2 0 0 0
2019-08-17 15:00:00 0 7284 29.38 27.92 30.49 0 0 0
2019-08-17 16:00:00 0 7304 27.77 26.34 29.2 0 0 0
2019-08-17 17:00:00 0 7138 26.74 26.18 27.85 0 0 0
2019-08-17 18:00:00 0 7118 26.46 26.05 27.02 0 0 0